sensor_id;sensor_type;location;lat;lon;timestamp;pressure;altitude;pressure_sealevel;temperature;humidity
66090;BME280;53113;45.602;11.904;2022-08-03T00:00:06;101418.31;;;23.83;52.45
66090;BME280;53113;45.602;11.904;2022-08-03T00:02:32;101415.77;;;23.80;52.62
66090;BME280;53113;45.602;11.904;2022-08-03T00:04:58;101415.46;;;23.79;52.71
66090;BME280;53113;45.602;11.904;2022-08-03T00:07:24;101417.61;;;23.77;52.73
66090;BME280;53113;45.602;11.904;2022-08-03T00:09:49;101417.70;;;23.75;52.78
66090;BME280;53113;45.602;11.904;2022-08-03T00:12:16;101420.46;;;23.72;52.66
66090;BME280;53113;45.602;11.904;2022-08-03T00:14:41;101414.63;;;23.71;52.84
66090;BME280;53113;45.602;11.904;2022-08-03T00:17:07;101415.27;;;23.70;52.72
66090;BME280;53113;45.602;11.904;2022-08-03T00:19:33;101415.55;;;23.68;52.89
66090;BME280;53113;45.602;11.904;2022-08-03T00:21:59;101412.59;;;23.66;52.89
66090;BME280;53113;45.602;11.904;2022-08-03T00:24:25;101412.08;;;23.65;52.69
66090;BME280;53113;45.602;11.904;2022-08-03T00:26:51;101412.70;;;23.63;52.93
66090;BME280;53113;45.602;11.904;2022-08-03T00:29:17;101411.71;;;23.61;52.75
66090;BME280;53113;45.602;11.904;2022-08-03T00:31:42;101417.73;;;23.59;52.92
66090;BME280;53113;45.602;11.904;2022-08-03T00:34:08;101408.41;;;23.55;53.12
66090;BME280;53113;45.602;11.904;2022-08-03T00:36:34;101410.46;;;23.53;53.09
66090;BME280;53113;45.602;11.904;2022-08-03T00:38:59;101414.16;;;23.50;53.21
66090;BME280;53113;45.602;11.904;2022-08-03T00:41:25;101413.76;;;23.47;53.26
66090;BME280;53113;45.602;11.904;2022-08-03T00:43:51;101412.70;;;23.44;53.35
66090;BME280;53113;45.602;11.904;2022-08-03T00:46:17;101411.17;;;23.40;53.50
66090;BME280;53113;45.602;11.904;2022-08-03T00:48:43;101412.73;;;23.38;53.40
66090;BME280;53113;45.602;11.904;2022-08-03T00:51:09;101408.42;;;23.35;53.32
66090;BME280;53113;45.602;11.904;2022-08-03T00:53:35;101411.70;;;23.31;53.47
66090;BME280;53113;45.602;11.904;2022-08-03T00:56:02;101415.57;;;23.28;53.53
66090;BME280;53113;45.602;11.904;2022-08-03T00:58:28;101415.23;;;23.23;53.61
66090;BME280;53113;45.602;11.904;2022-08-03T01:00:54;101411.64;;;23.19;53.64
66090;BME280;53113;45.602;11.904;2022-08-03T01:03:22;101414.43;;;23.18;53.76
66090;BME280;53113;45.602;11.904;2022-08-03T01:05:59;101417.91;;;23.14;53.90
66090;BME280;53113;45.602;11.904;2022-08-03T01:14:03;101412.55;;;23.04;54.14
66090;BME280;53113;45.602;11.904;2022-08-03T01:16:39;101408.84;;;23.02;54.31
66090;BME280;53113;45.602;11.904;2022-08-03T01:19:30;101407.67;;;23.00;54.44
66090;BME280;53113;45.602;11.904;2022-08-03T01:31:18;101403.79;;;22.89;54.78
66090;BME280;53113;45.602;11.904;2022-08-03T01:33:53;101402.45;;;22.87;54.77
66090;BME280;53113;45.602;11.904;2022-08-03T01:36:23;101403.02;;;22.84;54.87
66090;BME280;53113;45.602;11.904;2022-08-03T01:38:54;101402.23;;;22.81;54.92
66090;BME280;53113;45.602;11.904;2022-08-03T01:41:32;101402.19;;;22.79;54.98
66090;BME280;53113;45.602;11.904;2022-08-03T01:44:03;101403.01;;;22.76;54.99
66090;BME280;53113;45.602;11.904;2022-08-03T01:46:32;101398.39;;;22.74;55.06
66090;BME280;53113;45.602;11.904;2022-08-03T01:49:00;101398.80;;;22.72;55.14
66090;BME280;53113;45.602;11.904;2022-08-03T01:51:27;101398.52;;;22.70;55.19
66090;BME280;53113;45.602;11.904;2022-08-03T01:53:56;101397.69;;;22.67;55.19
66090;BME280;53113;45.602;11.904;2022-08-03T01:56:24;101397.45;;;22.66;55.33
66090;BME280;53113;45.602;11.904;2022-08-03T01:58:51;101394.31;;;22.65;55.43
66090;BME280;53113;45.602;11.904;2022-08-03T02:01:19;101396.61;;;22.68;55.42
66090;BME280;53113;45.602;11.904;2022-08-03T02:03:48;101397.05;;;22.70;55.42
66090;BME280;53113;45.602;11.904;2022-08-03T02:06:15;101396.27;;;22.72;55.44
66090;BME280;53113;45.602;11.904;2022-08-03T02:08:44;101396.61;;;22.72;55.58
66090;BME280;53113;45.602;11.904;2022-08-03T02:11:13;101397.39;;;22.72;55.64
66090;BME280;53113;45.602;11.904;2022-08-03T02:13:39;101398.40;;;22.71;55.84
66090;BME280;53113;45.602;11.904;2022-08-03T02:16:06;101397.81;;;22.70;55.82
66090;BME280;53113;45.602;11.904;2022-08-03T02:18:33;101397.18;;;22.67;55.70
66090;BME280;53113;45.602;11.904;2022-08-03T02:21:03;101397.23;;;22.65;55.74
66090;BME280;53113;45.602;11.904;2022-08-03T02:23:30;101392.44;;;22.63;55.78
66090;BME280;53113;45.602;11.904;2022-08-03T02:25:58;101395.30;;;22.60;55.71
66090;BME280;53113;45.602;11.904;2022-08-03T02:28:31;101392.86;;;22.57;55.85
66090;BME280;53113;45.602;11.904;2022-08-03T02:31:02;101390.26;;;22.51;55.80
66090;BME280;53113;45.602;11.904;2022-08-03T02:33:41;101393.14;;;22.47;56.00
66090;BME280;53113;45.602;11.904;2022-08-03T02:36:08;101394.23;;;22.43;55.90
66090;BME280;53113;45.602;11.904;2022-08-03T02:38:40;101397.81;;;22.40;56.17
66090;BME280;53113;45.602;11.904;2022-08-03T02:41:15;101397.98;;;22.35;56.26
66090;BME280;53113;45.602;11.904;2022-08-03T02:43:45;101395.77;;;22.31;56.48
66090;BME280;53113;45.602;11.904;2022-08-03T02:46:17;101399.34;;;22.27;56.77
66090;BME280;53113;45.602;11.904;2022-08-03T02:48:45;101399.14;;;22.22;57.09
66090;BME280;53113;45.602;11.904;2022-08-03T02:51:14;101401.65;;;22.19;57.35
66090;BME280;53113;45.602;11.904;2022-08-03T02:53:42;101400.05;;;22.19;57.40
66090;BME280;53113;45.602;11.904;2022-08-03T02:56:10;101397.02;;;22.21;57.57
66090;BME280;53113;45.602;11.904;2022-08-03T02:58:36;101393.38;;;22.22;57.42
66090;BME280;53113;45.602;11.904;2022-08-03T03:01:03;101394.63;;;22.24;57.45
66090;BME280;53113;45.602;11.904;2022-08-03T03:03:31;101391.99;;;22.23;57.38
66090;BME280;53113;45.602;11.904;2022-08-03T03:05:58;101393.08;;;22.23;57.30
66090;BME280;53113;45.602;11.904;2022-08-03T03:08:24;101395.44;;;22.23;57.26
66090;BME280;53113;45.602;11.904;2022-08-03T03:10:52;101391.63;;;22.20;57.28
66090;BME280;53113;45.602;11.904;2022-08-03T03:13:20;101392.41;;;22.20;57.21
66090;BME280;53113;45.602;11.904;2022-08-03T03:15:47;101393.04;;;22.17;57.17
66090;BME280;53113;45.602;11.904;2022-08-03T03:18:15;101394.64;;;22.14;57.16
66090;BME280;53113;45.602;11.904;2022-08-03T03:20:41;101389.25;;;22.11;57.18
66090;BME280;53113;45.602;11.904;2022-08-03T03:23:09;101392.44;;;22.08;57.17
66090;BME280;53113;45.602;11.904;2022-08-03T03:25:36;101388.21;;;22.05;57.12
66090;BME280;53113;45.602;11.904;2022-08-03T03:28:04;101388.02;;;22.02;57.32
66090;BME280;53113;45.602;11.904;2022-08-03T03:30:30;101384.48;;;22.00;57.26
66090;BME280;53113;45.602;11.904;2022-08-03T03:32:57;101388.80;;;21.97;57.42
66090;BME280;53113;45.602;11.904;2022-08-03T03:35:23;101384.48;;;21.94;57.54
66090;BME280;53113;45.602;11.904;2022-08-03T03:37:50;101386.92;;;21.92;57.69
66090;BME280;53113;45.602;11.904;2022-08-03T03:40:16;101392.02;;;21.90;57.86
66090;BME280;53113;45.602;11.904;2022-08-03T03:42:42;101396.94;;;21.89;58.05
66090;BME280;53113;45.602;11.904;2022-08-03T03:45:09;101397.88;;;21.91;58.10
66090;BME280;53113;45.602;11.904;2022-08-03T03:47:36;101397.02;;;21.92;58.13
66090;BME280;53113;45.602;11.904;2022-08-03T03:50:05;101399.06;;;21.93;58.16
66090;BME280;53113;45.602;11.904;2022-08-03T03:52:32;101402.54;;;21.92;58.15
66090;BME280;53113;45.602;11.904;2022-08-03T03:54:58;101397.98;;;21.91;58.10
66090;BME280;53113;45.602;11.904;2022-08-03T03:57:24;101399.97;;;21.91;58.15
66090;BME280;53113;45.602;11.904;2022-08-03T03:59:50;101399.67;;;21.89;58.13
66090;BME280;53113;45.602;11.904;2022-08-03T04:02:16;101401.65;;;21.88;58.23
66090;BME280;53113;45.602;11.904;2022-08-03T04:04:41;101400.54;;;21.86;58.34
66090;BME280;53113;45.602;11.904;2022-08-03T04:07:26;101406.52;;;21.84;58.47
66090;BME280;53113;45.602;11.904;2022-08-03T04:10:30;101403.86;;;21.81;58.60
66090;BME280;53113;45.602;11.904;2022-08-03T04:13:17;101407.16;;;21.78;58.62
66090;BME280;53113;45.602;11.904;2022-08-03T04:15:46;101404.80;;;21.76;58.88
66090;BME280;53113;45.602;11.904;2022-08-03T04:18:14;101403.42;;;21.75;58.78
66090;BME280;53113;45.602;11.904;2022-08-03T04:20:44;101407.84;;;21.74;58.70
66090;BME280;53113;45.602;11.904;2022-08-03T04:23:12;101404.88;;;21.74;58.72
66090;BME280;53113;45.602;11.904;2022-08-03T04:25:39;101400.44;;;21.74;58.72
66090;BME280;53113;45.602;11.904;2022-08-03T04:28:08;101400.35;;;21.78;58.79
66090;BME280;53113;45.602;11.904;2022-08-03T04:30:36;101403.38;;;21.83;58.88
66090;BME280;53113;45.602;11.904;2022-08-03T04:33:03;101406.91;;;21.87;58.94
66090;BME280;53113;45.602;11.904;2022-08-03T04:35:31;101409.20;;;21.89;58.98
66090;BME280;53113;45.602;11.904;2022-08-03T04:38:02;101411.05;;;21.92;59.09
66090;BME280;53113;45.602;11.904;2022-08-03T04:40:35;101408.20;;;21.95;58.94
66090;BME280;53113;45.602;11.904;2022-08-03T04:43:04;101403.94;;;21.98;58.91
66090;BME280;53113;45.602;11.904;2022-08-03T04:45:31;101408.49;;;22.00;59.00
66090;BME280;53113;45.602;11.904;2022-08-03T04:47:58;101409.61;;;22.03;59.02
66090;BME280;53113;45.602;11.904;2022-08-03T04:50:24;101412.63;;;22.07;59.04
66090;BME280;53113;45.602;11.904;2022-08-03T04:52:53;101412.03;;;22.11;59.06
66090;BME280;53113;45.602;11.904;2022-08-03T04:55:30;101412.92;;;22.14;59.07
66090;BME280;53113;45.602;11.904;2022-08-03T04:57:57;101416.20;;;22.18;59.07
66090;BME280;53113;45.602;11.904;2022-08-03T05:00:23;101420.18;;;22.23;59.07
66090;BME280;53113;45.602;11.904;2022-08-03T05:02:49;101423.66;;;22.27;58.98
66090;BME280;53113;45.602;11.904;2022-08-03T05:05:15;101421.21;;;22.31;58.96
66090;BME280;53113;45.602;11.904;2022-08-03T05:07:42;101422.60;;;22.36;58.95
66090;BME280;53113;45.602;11.904;2022-08-03T05:10:10;101426.09;;;22.42;59.01
66090;BME280;53113;45.602;11.904;2022-08-03T05:12:36;101429.45;;;22.50;58.94
66090;BME280;53113;45.602;11.904;2022-08-03T05:15:03;101434.56;;;22.61;58.98
66090;BME280;53113;45.602;11.904;2022-08-03T05:17:29;101433.91;;;22.71;58.91
66090;BME280;53113;45.602;11.904;2022-08-03T05:19:55;101435.86;;;22.79;58.75
66090;BME280;53113;45.602;11.904;2022-08-03T05:22:21;101441.44;;;22.89;58.77
66090;BME280;53113;45.602;11.904;2022-08-03T05:24:47;101439.42;;;22.97;58.76
66090;BME280;53113;45.602;11.904;2022-08-03T05:27:13;101440.95;;;23.01;58.58
66090;BME280;53113;45.602;11.904;2022-08-03T05:29:50;101444.91;;;23.10;58.63
66090;BME280;53113;45.602;11.904;2022-08-03T05:32:16;101445.45;;;23.18;58.52
66090;BME280;53113;45.602;11.904;2022-08-03T05:34:42;101443.17;;;23.23;58.34
66090;BME280;53113;45.602;11.904;2022-08-03T05:37:08;101445.22;;;23.29;58.17
66090;BME280;53113;45.602;11.904;2022-08-03T05:39:35;101444.98;;;23.34;58.25
66090;BME280;53113;45.602;11.904;2022-08-03T05:42:01;101450.63;;;23.43;58.34
66090;BME280;53113;45.602;11.904;2022-08-03T05:44:27;101445.71;;;23.49;58.35
66090;BME280;53113;45.602;11.904;2022-08-03T05:46:53;101448.48;;;23.57;58.11
66090;BME280;53113;45.602;11.904;2022-08-03T05:49:19;101447.09;;;23.64;58.17
66090;BME280;53113;45.602;11.904;2022-08-03T05:51:45;101444.48;;;23.71;58.14
66090;BME280;53113;45.602;11.904;2022-08-03T05:54:11;101441.67;;;23.80;58.04
66090;BME280;53113;45.602;11.904;2022-08-03T05:56:37;101442.63;;;23.87;57.99
66090;BME280;53113;45.602;11.904;2022-08-03T05:59:05;101445.56;;;23.97;57.90
66090;BME280;53113;45.602;11.904;2022-08-03T06:01:31;101448.77;;;24.05;57.63
66090;BME280;53113;45.602;11.904;2022-08-03T06:03:57;101441.93;;;24.12;57.42
66090;BME280;53113;45.602;11.904;2022-08-03T06:06:23;101436.83;;;24.21;57.36
66090;BME280;53113;45.602;11.904;2022-08-03T06:08:48;101437.94;;;24.29;57.25
66090;BME280;53113;45.602;11.904;2022-08-03T06:11:15;101439.91;;;24.37;57.02
66090;BME280;53113;45.602;11.904;2022-08-03T06:13:41;101436.48;;;24.46;56.93
66090;BME280;53113;45.602;11.904;2022-08-03T06:16:07;101438.94;;;24.55;56.89
66090;BME280;53113;45.602;11.904;2022-08-03T06:18:33;101438.27;;;24.65;56.95
66090;BME280;53113;45.602;11.904;2022-08-03T06:20:59;101433.75;;;24.73;56.90
66090;BME280;53113;45.602;11.904;2022-08-03T06:23:25;101438.38;;;24.84;56.73
66090;BME280;53113;45.602;11.904;2022-08-03T06:25:51;101438.21;;;24.97;56.50
66090;BME280;53113;45.602;11.904;2022-08-03T06:28:17;101434.90;;;25.09;56.32
66090;BME280;53113;45.602;11.904;2022-08-03T06:30:43;101434.42;;;25.19;56.31
66090;BME280;53113;45.602;11.904;2022-08-03T06:33:09;101434.89;;;25.32;56.29
66090;BME280;53113;45.602;11.904;2022-08-03T06:35:35;101440.56;;;25.46;56.04
66090;BME280;53113;45.602;11.904;2022-08-03T06:38:01;101442.16;;;25.59;55.98
66090;BME280;53113;45.602;11.904;2022-08-03T06:40:27;101443.86;;;25.71;55.55
66090;BME280;53113;45.602;11.904;2022-08-03T06:42:57;101448.83;;;25.84;55.24
66090;BME280;53113;45.602;11.904;2022-08-03T06:45:24;101448.43;;;25.99;55.24
66090;BME280;53113;45.602;11.904;2022-08-03T06:48:19;101454.17;;;26.13;54.77
66090;BME280;53113;45.602;11.904;2022-08-03T06:50:45;101450.36;;;26.31;54.54
66090;BME280;53113;45.602;11.904;2022-08-03T06:53:11;101453.42;;;26.45;54.32
66090;BME280;53113;45.602;11.904;2022-08-03T06:55:36;101457.45;;;26.61;53.95
66090;BME280;53113;45.602;11.904;2022-08-03T06:58:02;101456.45;;;26.77;53.45
66090;BME280;53113;45.602;11.904;2022-08-03T07:00:28;101458.08;;;26.92;53.28
66090;BME280;53113;45.602;11.904;2022-08-03T07:02:55;101463.27;;;27.09;52.89
66090;BME280;53113;45.602;11.904;2022-08-03T07:05:21;101457.48;;;27.25;52.39
66090;BME280;53113;45.602;11.904;2022-08-03T07:07:47;101456.70;;;27.44;52.22
66090;BME280;53113;45.602;11.904;2022-08-03T07:10:13;101456.92;;;27.64;51.59
66090;BME280;53113;45.602;11.904;2022-08-03T07:12:39;101457.83;;;27.82;51.24
66090;BME280;53113;45.602;11.904;2022-08-03T07:15:08;101457.55;;;28.04;50.16
66090;BME280;53113;45.602;11.904;2022-08-03T07:17:35;101464.66;;;28.24;49.55
66090;BME280;53113;45.602;11.904;2022-08-03T07:20:03;101464.55;;;28.45;48.85
66090;BME280;53113;45.602;11.904;2022-08-03T07:22:30;101466.18;;;28.65;48.30
66090;BME280;53113;45.602;11.904;2022-08-03T07:24:56;101468.59;;;28.86;47.93
66090;BME280;53113;45.602;11.904;2022-08-03T07:27:22;101470.43;;;29.08;47.45
66090;BME280;53113;45.602;11.904;2022-08-03T07:29:48;101471.70;;;29.31;46.74
66090;BME280;53113;45.602;11.904;2022-08-03T07:32:13;101472.40;;;29.53;46.11
66090;BME280;53113;45.602;11.904;2022-08-03T07:34:39;101472.95;;;29.78;45.33
66090;BME280;53113;45.602;11.904;2022-08-03T07:37:05;101469.23;;;30.01;44.78
66090;BME280;53113;45.602;11.904;2022-08-03T07:39:30;101464.95;;;30.26;44.28
66090;BME280;53113;45.602;11.904;2022-08-03T07:41:56;101468.86;;;30.51;43.75
66090;BME280;53113;45.602;11.904;2022-08-03T07:44:22;101465.30;;;30.76;43.23
66090;BME280;53113;45.602;11.904;2022-08-03T07:46:47;101468.87;;;31.00;42.50
66090;BME280;53113;45.602;11.904;2022-08-03T07:49:15;101466.70;;;31.24;41.88
66090;BME280;53113;45.602;11.904;2022-08-03T07:51:41;101466.20;;;31.47;41.44
66090;BME280;53113;45.602;11.904;2022-08-03T07:54:06;101471.48;;;31.66;41.08
66090;BME280;53113;45.602;11.904;2022-08-03T07:56:35;101470.64;;;31.89;40.57
66090;BME280;53113;45.602;11.904;2022-08-03T07:59:01;101473.05;;;32.10;40.26
66090;BME280;53113;45.602;11.904;2022-08-03T08:01:27;101469.73;;;32.28;39.67
66090;BME280;53113;45.602;11.904;2022-08-03T08:03:54;101466.23;;;32.43;39.30
66090;BME280;53113;45.602;11.904;2022-08-03T08:06:20;101468.55;;;32.61;39.13
66090;BME280;53113;45.602;11.904;2022-08-03T08:08:46;101470.64;;;32.81;38.69
66090;BME280;53113;45.602;11.904;2022-08-03T08:11:12;101471.55;;;32.99;38.19
66090;BME280;53113;45.602;11.904;2022-08-03T08:13:38;101473.27;;;33.17;37.72
66090;BME280;53113;45.602;11.904;2022-08-03T08:16:04;101473.84;;;33.33;36.72
66090;BME280;53113;45.602;11.904;2022-08-03T08:18:31;101468.91;;;33.49;36.41
66090;BME280;53113;45.602;11.904;2022-08-03T08:20:57;101470.94;;;33.65;35.94
66090;BME280;53113;45.602;11.904;2022-08-03T08:23:23;101468.86;;;33.78;35.40
66090;BME280;53113;45.602;11.904;2022-08-03T08:25:50;101467.68;;;33.88;34.96
66090;BME280;53113;45.602;11.904;2022-08-03T08:28:17;101469.73;;;34.00;35.15
66090;BME280;53113;45.602;11.904;2022-08-03T08:30:43;101472.94;;;34.10;34.58
66090;BME280;53113;45.602;11.904;2022-08-03T08:33:09;101472.73;;;34.19;34.15
66090;BME280;53113;45.602;11.904;2022-08-03T08:35:35;101472.20;;;34.29;34.07
66090;BME280;53113;45.602;11.904;2022-08-03T08:38:01;101470.77;;;34.39;33.72
66090;BME280;53113;45.602;11.904;2022-08-03T08:40:27;101469.77;;;34.52;33.40
66090;BME280;53113;45.602;11.904;2022-08-03T08:42:53;101470.88;;;34.65;33.37
66090;BME280;53113;45.602;11.904;2022-08-03T08:45:18;101472.24;;;34.80;33.05
66090;BME280;53113;45.602;11.904;2022-08-03T08:47:46;101469.19;;;34.89;32.52
66090;BME280;53113;45.602;11.904;2022-08-03T08:50:17;101474.34;;;35.02;32.05
66090;BME280;53113;45.602;11.904;2022-08-03T08:52:46;101470.58;;;35.13;31.86
66090;BME280;53113;45.602;11.904;2022-08-03T08:55:14;101469.40;;;35.24;31.63
66090;BME280;53113;45.602;11.904;2022-08-03T08:57:50;101472.48;;;35.35;31.34
66090;BME280;53113;45.602;11.904;2022-08-03T09:00:17;101472.73;;;35.47;31.17
66090;BME280;53113;45.602;11.904;2022-08-03T09:02:44;101472.02;;;35.57;30.67
66090;BME280;53113;45.602;11.904;2022-08-03T09:05:12;101472.55;;;35.65;30.66
66090;BME280;53113;45.602;11.904;2022-08-03T09:07:40;101474.15;;;35.73;30.70
66090;BME280;53113;45.602;11.904;2022-08-03T09:10:07;101475.64;;;35.81;30.60
66090;BME280;53113;45.602;11.904;2022-08-03T09:12:41;101474.48;;;35.90;30.32
66090;BME280;53113;45.602;11.904;2022-08-03T09:17:44;101472.17;;;36.12;30.09
66090;BME280;53113;45.602;11.904;2022-08-03T09:20:10;101471.88;;;36.21;30.09
66090;BME280;53113;45.602;11.904;2022-08-03T09:25:15;101465.55;;;36.48;29.61
66090;BME280;53113;45.602;11.904;2022-08-03T09:27:43;101462.02;;;36.59;29.33
66090;BME280;53113;45.602;11.904;2022-08-03T09:30:14;101463.36;;;36.74;29.36
66090;BME280;53113;45.602;11.904;2022-08-03T09:32:40;101462.27;;;36.87;28.81
66090;BME280;53113;45.602;11.904;2022-08-03T09:35:07;101465.27;;;36.97;28.51
66090;BME280;53113;45.602;11.904;2022-08-03T09:37:33;101464.84;;;37.06;28.33
66090;BME280;53113;45.602;11.904;2022-08-03T09:39:58;101464.48;;;37.15;28.25
66090;BME280;53113;45.602;11.904;2022-08-03T09:42:24;101460.32;;;37.21;28.17
66090;BME280;53113;45.602;11.904;2022-08-03T09:44:51;101463.98;;;37.34;27.47
66090;BME280;53113;45.602;11.904;2022-08-03T09:47:28;101464.74;;;37.41;27.22
66090;BME280;53113;45.602;11.904;2022-08-03T09:50:05;101467.16;;;37.48;26.77
66090;BME280;53113;45.602;11.904;2022-08-03T09:52:36;101465.67;;;37.54;26.61
66090;BME280;53113;45.602;11.904;2022-08-03T09:55:08;101460.36;;;37.62;26.53
66090;BME280;53113;45.602;11.904;2022-08-03T09:57:34;101453.98;;;37.69;26.37
66090;BME280;53113;45.602;11.904;2022-08-03T10:02:41;101456.90;;;37.87;26.29
66090;BME280;53113;45.602;11.904;2022-08-03T10:05:09;101453.94;;;37.98;26.07
66090;BME280;53113;45.602;11.904;2022-08-03T10:07:43;101450.55;;;38.14;25.97
66090;BME280;53113;45.602;11.904;2022-08-03T10:10:09;101448.23;;;38.26;25.95
66090;BME280;53113;45.602;11.904;2022-08-03T10:12:36;101443.39;;;38.37;25.94
66090;BME280;53113;45.602;11.904;2022-08-03T10:15:03;101437.94;;;38.54;25.52
66090;BME280;53113;45.602;11.904;2022-08-03T10:17:29;101436.13;;;38.66;25.36
66090;BME280;53113;45.602;11.904;2022-08-03T10:19:54;101432.49;;;38.78;25.28
66090;BME280;53113;45.602;11.904;2022-08-03T10:22:25;101430.74;;;38.89;25.03
66090;BME280;53113;45.602;11.904;2022-08-03T10:24:55;101426.50;;;39.02;24.90
66090;BME280;53113;45.602;11.904;2022-08-03T10:27:24;101425.14;;;39.12;24.83
66090;BME280;53113;45.602;11.904;2022-08-03T10:29:53;101419.61;;;39.20;24.42
66090;BME280;53113;45.602;11.904;2022-08-03T10:32:45;101419.73;;;39.25;24.21
66090;BME280;53113;45.602;11.904;2022-08-03T10:35:14;101419.15;;;39.36;24.30
66090;BME280;53113;45.602;11.904;2022-08-03T10:40:15;101412.06;;;39.59;24.00
66090;BME280;53113;45.602;11.904;2022-08-03T10:42:45;101414.89;;;39.74;23.96
66090;BME280;53113;45.602;11.904;2022-08-03T10:45:19;101411.20;;;39.92;23.77
66090;BME280;53113;45.602;11.904;2022-08-03T10:47:47;101408.52;;;40.09;23.45
66090;BME280;53113;45.602;11.904;2022-08-03T10:50:15;101407.34;;;40.27;23.16
66090;BME280;53113;45.602;11.904;2022-08-03T10:52:58;101399.70;;;40.43;23.33
66090;BME280;53113;45.602;11.904;2022-08-03T11:01:07;101392.52;;;40.99;22.83
66090;BME280;53113;45.602;11.904;2022-08-03T11:03:33;101392.16;;;41.17;22.78
66090;BME280;53113;45.602;11.904;2022-08-03T11:06:23;101394.20;;;41.34;22.52
66090;BME280;53113;45.602;11.904;2022-08-03T11:11:34;101390.86;;;41.65;22.00
66090;BME280;53113;45.602;11.904;2022-08-03T11:17:07;101388.79;;;41.89;21.71
66090;BME280;53113;45.602;11.904;2022-08-03T11:19:47;101386.52;;;41.99;21.29
66090;BME280;53113;45.602;11.904;2022-08-03T11:22:14;101389.86;;;42.05;21.20
66090;BME280;53113;45.602;11.904;2022-08-03T11:30:15;101379.09;;;42.42;20.65
66090;BME280;53113;45.602;11.904;2022-08-03T11:32:53;101378.02;;;42.58;20.63
66090;BME280;53113;45.602;11.904;2022-08-03T11:35:31;101373.48;;;42.68;20.44
66090;BME280;53113;45.602;11.904;2022-08-03T11:42:57;101366.69;;;43.06;20.22
66090;BME280;53113;45.602;11.904;2022-08-03T11:45:23;101362.80;;;43.18;20.45
66090;BME280;53113;45.602;11.904;2022-08-03T11:47:52;101361.38;;;43.32;20.07
66090;BME280;53113;45.602;11.904;2022-08-03T11:50:19;101364.83;;;43.44;20.02
66090;BME280;53113;45.602;11.904;2022-08-03T11:52:46;101355.31;;;43.48;19.56
66090;BME280;53113;45.602;11.904;2022-08-03T11:55:13;101355.64;;;43.57;19.83
66090;BME280;53113;45.602;11.904;2022-08-03T11:57:39;101355.05;;;43.66;19.29
66090;BME280;53113;45.602;11.904;2022-08-03T12:00:27;101351.73;;;43.74;19.25
66090;BME280;53113;45.602;11.904;2022-08-03T12:03:01;101348.73;;;43.84;19.48
66090;BME280;53113;45.602;11.904;2022-08-03T12:05:34;101349.36;;;43.93;19.37
66090;BME280;53113;45.602;11.904;2022-08-03T12:08:01;101347.66;;;43.99;19.11
66090;BME280;53113;45.602;11.904;2022-08-03T12:10:26;101342.61;;;44.00;19.23
66090;BME280;53113;45.602;11.904;2022-08-03T12:12:56;101336.98;;;44.06;19.11
66090;BME280;53113;45.602;11.904;2022-08-03T12:15:26;101335.08;;;44.13;19.08
66090;BME280;53113;45.602;11.904;2022-08-03T12:17:53;101336.36;;;44.17;19.00
66090;BME280;53113;45.602;11.904;2022-08-03T12:20:24;101337.08;;;44.19;18.53
66090;BME280;53113;45.602;11.904;2022-08-03T12:22:50;101334.89;;;44.23;18.57
66090;BME280;53113;45.602;11.904;2022-08-03T12:25:34;101333.04;;;44.24;18.62
66090;BME280;53113;45.602;11.904;2022-08-03T12:28:18;101332.05;;;44.27;18.15
66090;BME280;53113;45.602;11.904;2022-08-03T12:30:48;101326.45;;;44.31;17.95
66090;BME280;53113;45.602;11.904;2022-08-03T12:35:47;101326.63;;;44.37;17.70
66090;BME280;53113;45.602;11.904;2022-08-03T12:38:21;101325.19;;;44.40;17.58
66090;BME280;53113;45.602;11.904;2022-08-03T12:40:58;101320.63;;;44.45;17.83
66090;BME280;53113;45.602;11.904;2022-08-03T12:43:24;101317.27;;;44.50;17.78
66090;BME280;53113;45.602;11.904;2022-08-03T12:45:50;101318.42;;;44.57;17.41
66090;BME280;53113;45.602;11.904;2022-08-03T12:48:16;101314.45;;;44.65;17.87
66090;BME280;53113;45.602;11.904;2022-08-03T12:50:42;101314.00;;;44.75;17.66
66090;BME280;53113;45.602;11.904;2022-08-03T12:53:08;101312.38;;;44.85;17.45
66090;BME280;53113;45.602;11.904;2022-08-03T12:55:38;101314.15;;;44.95;17.25
66090;BME280;53113;45.602;11.904;2022-08-03T12:58:06;101314.68;;;45.05;17.21
66090;BME280;53113;45.602;11.904;2022-08-03T13:00:35;101310.67;;;45.11;17.09
66090;BME280;53113;45.602;11.904;2022-08-03T13:03:04;101303.02;;;45.14;17.03
66090;BME280;53113;45.602;11.904;2022-08-03T13:05:31;101302.98;;;45.15;16.64
66090;BME280;53113;45.602;11.904;2022-08-03T13:07:57;101302.05;;;45.16;16.59
66090;BME280;53113;45.602;11.904;2022-08-03T13:10:31;101302.81;;;45.22;16.89
66090;BME280;53113;45.602;11.904;2022-08-03T13:12:58;101300.23;;;45.28;16.63
66090;BME280;53113;45.602;11.904;2022-08-03T13:15:26;101301.17;;;45.31;16.49
66090;BME280;53113;45.602;11.904;2022-08-03T13:17:56;101296.89;;;45.28;16.31
66090;BME280;53113;45.602;11.904;2022-08-03T13:20:22;101298.98;;;45.24;16.29
66090;BME280;53113;45.602;11.904;2022-08-03T13:22:50;101299.97;;;45.23;16.17
66090;BME280;53113;45.602;11.904;2022-08-03T13:25:18;101296.11;;;45.23;16.14
66090;BME280;53113;45.602;11.904;2022-08-03T13:27:45;101292.71;;;45.22;16.10
66090;BME280;53113;45.602;11.904;2022-08-03T13:30:11;101293.41;;;45.21;16.03
66090;BME280;53113;45.602;11.904;2022-08-03T13:32:37;101290.41;;;45.26;16.05
66090;BME280;53113;45.602;11.904;2022-08-03T13:35:03;101283.25;;;45.35;16.25